sensor_id;sensor_type;location;lat;lon;timestamp;P1;durP1;ratioP1;P2;durP2;ratioP2
56136;SDS011;42008;52.934;5.884;2023-06-04T00:02:13;10.50;;;5.13;;
56136;SDS011;42008;52.934;5.884;2023-06-04T00:04:38;9.40;;;5.27;;
56136;SDS011;42008;52.934;5.884;2023-06-04T00:07:04;12.60;;;5.43;;
56136;SDS011;42008;52.934;5.884;2023-06-04T00:09:30;10.67;;;6.20;;
56136;SDS011;42008;52.934;5.884;2023-06-04T00:11:56;10.47;;;5.23;;
56136;SDS011;42008;52.934;5.884;2023-06-04T00:14:21;12.63;;;6.10;;
56136;SDS011;42008;52.934;5.884;2023-06-04T00:16:48;9.67;;;5.80;;
56136;SDS011;42008;52.934;5.884;2023-06-04T00:19:13;14.67;;;6.83;;
56136;SDS011;42008;52.934;5.884;2023-06-04T00:21:39;12.93;;;5.63;;
56136;SDS011;42008;52.934;5.884;2023-06-04T00:24:05;8.23;;;5.47;;
56136;SDS011;42008;52.934;5.884;2023-06-04T00:26:31;18.30;;;6.77;;
56136;SDS011;42008;52.934;5.884;2023-06-04T00:28:56;9.97;;;6.47;;
56136;SDS011;42008;52.934;5.884;2023-06-04T00:31:22;15.40;;;6.83;;
56136;SDS011;42008;52.934;5.884;2023-06-04T00:33:48;11.23;;;5.80;;
56136;SDS011;42008;52.934;5.884;2023-06-04T00:36:14;15.40;;;6.93;;
56136;SDS011;42008;52.934;5.884;2023-06-04T00:38:39;15.43;;;7.70;;
56136;SDS011;42008;52.934;5.884;2023-06-04T00:41:05;13.33;;;6.93;;
56136;SDS011;42008;52.934;5.884;2023-06-04T00:43:31;12.70;;;7.40;;
56136;SDS011;42008;52.934;5.884;2023-06-04T00:45:57;15.90;;;7.53;;
56136;SDS011;42008;52.934;5.884;2023-06-04T00:48:23;13.90;;;6.43;;
56136;SDS011;42008;52.934;5.884;2023-06-04T00:50:50;9.83;;;6.23;;
56136;SDS011;42008;52.934;5.884;2023-06-04T00:53:16;12.83;;;6.70;;
56136;SDS011;42008;52.934;5.884;2023-06-04T00:55:42;18.97;;;8.97;;
56136;SDS011;42008;52.934;5.884;2023-06-04T00:58:08;14.10;;;7.20;;
56136;SDS011;42008;52.934;5.884;2023-06-04T01:00:34;13.53;;;6.63;;
56136;SDS011;42008;52.934;5.884;2023-06-04T01:03:01;15.43;;;7.93;;
56136;SDS011;42008;52.934;5.884;2023-06-04T01:07:57;17.17;;;7.33;;
56136;SDS011;42008;52.934;5.884;2023-06-04T01:10:23;12.13;;;6.30;;
56136;SDS011;42008;52.934;5.884;2023-06-04T01:12:49;14.33;;;6.67;;
56136;SDS011;42008;52.934;5.884;2023-06-04T01:15:14;13.07;;;6.27;;
56136;SDS011;42008;52.934;5.884;2023-06-04T01:17:41;15.93;;;7.03;;
56136;SDS011;42008;52.934;5.884;2023-06-04T01:28:11;11.53;;;5.80;;
56136;SDS011;42008;52.934;5.884;2023-06-04T01:30:38;13.43;;;6.03;;
56136;SDS011;42008;52.934;5.884;2023-06-04T01:33:08;13.87;;;6.70;;
56136;SDS011;42008;52.934;5.884;2023-06-04T01:35:38;14.43;;;6.80;;
56136;SDS011;42008;52.934;5.884;2023-06-04T01:38:04;16.30;;;8.20;;
56136;SDS011;42008;52.934;5.884;2023-06-04T01:40:30;22.03;;;9.77;;
56136;SDS011;42008;52.934;5.884;2023-06-04T01:42:57;17.77;;;7.13;;
56136;SDS011;42008;52.934;5.884;2023-06-04T01:45:23;15.43;;;7.57;;
56136;SDS011;42008;52.934;5.884;2023-06-04T01:47:50;16.90;;;9.03;;
56136;SDS011;42008;52.934;5.884;2023-06-04T01:50:16;26.87;;;8.90;;
56136;SDS011;42008;52.934;5.884;2023-06-04T01:52:42;13.83;;;7.00;;
56136;SDS011;42008;52.934;5.884;2023-06-04T01:55:08;14.53;;;6.77;;
56136;SDS011;42008;52.934;5.884;2023-06-04T01:57:37;16.63;;;7.87;;
56136;SDS011;42008;52.934;5.884;2023-06-04T02:00:03;16.80;;;8.10;;
56136;SDS011;42008;52.934;5.884;2023-06-04T02:02:33;18.27;;;7.47;;
56136;SDS011;42008;52.934;5.884;2023-06-04T02:04:58;16.87;;;6.97;;
56136;SDS011;42008;52.934;5.884;2023-06-04T02:07:24;19.20;;;6.83;;
56136;SDS011;42008;52.934;5.884;2023-06-04T02:09:51;23.17;;;7.73;;
56136;SDS011;42008;52.934;5.884;2023-06-04T02:12:17;19.27;;;7.93;;
56136;SDS011;42008;52.934;5.884;2023-06-04T02:14:43;18.90;;;7.10;;
56136;SDS011;42008;52.934;5.884;2023-06-04T02:17:12;15.40;;;6.90;;
56136;SDS011;42008;52.934;5.884;2023-06-04T02:19:38;13.47;;;6.40;;
56136;SDS011;42008;52.934;5.884;2023-06-04T02:22:09;15.55;;;7.50;;
56136;SDS011;42008;52.934;5.884;2023-06-04T02:24:36;17.53;;;6.70;;
56136;SDS011;42008;52.934;5.884;2023-06-04T02:27:01;12.50;;;7.23;;
56136;SDS011;42008;52.934;5.884;2023-06-04T02:29:27;18.93;;;7.10;;
56136;SDS011;42008;52.934;5.884;2023-06-04T02:31:53;12.30;;;7.07;;
56136;SDS011;42008;52.934;5.884;2023-06-04T02:34:19;17.97;;;8.10;;
56136;SDS011;42008;52.934;5.884;2023-06-04T02:36:44;15.13;;;7.40;;
56136;SDS011;42008;52.934;5.884;2023-06-04T02:39:13;15.93;;;7.47;;
56136;SDS011;42008;52.934;5.884;2023-06-04T02:41:39;15.47;;;8.03;;
56136;SDS011;42008;52.934;5.884;2023-06-04T02:44:05;16.63;;;8.27;;
56136;SDS011;42008;52.934;5.884;2023-06-04T02:46:31;14.97;;;7.63;;
56136;SDS011;42008;52.934;5.884;2023-06-04T02:48:56;16.67;;;8.30;;
56136;SDS011;42008;52.934;5.884;2023-06-04T02:51:22;24.40;;;9.63;;
56136;SDS011;42008;52.934;5.884;2023-06-04T02:53:47;21.93;;;10.63;;
56136;SDS011;42008;52.934;5.884;2023-06-04T02:56:13;23.47;;;8.30;;
56136;SDS011;42008;52.934;5.884;2023-06-04T02:58:48;19.47;;;9.00;;
56136;SDS011;42008;52.934;5.884;2023-06-04T03:01:18;20.50;;;8.87;;
56136;SDS011;42008;52.934;5.884;2023-06-04T03:03:51;14.13;;;8.67;;
56136;SDS011;42008;52.934;5.884;2023-06-04T03:06:17;15.87;;;7.03;;
56136;SDS011;42008;52.934;5.884;2023-06-04T03:08:45;15.47;;;8.30;;
56136;SDS011;42008;52.934;5.884;2023-06-04T03:11:11;15.77;;;8.10;;
56136;SDS011;42008;52.934;5.884;2023-06-04T03:13:37;19.43;;;6.83;;
56136;SDS011;42008;52.934;5.884;2023-06-04T03:16:03;16.80;;;7.97;;
56136;SDS011;42008;52.934;5.884;2023-06-04T03:18:38;20.87;;;9.47;;
56136;SDS011;42008;52.934;5.884;2023-06-04T03:21:07;21.67;;;9.40;;
56136;SDS011;42008;52.934;5.884;2023-06-04T03:23:34;21.50;;;8.33;;
56136;SDS011;42008;52.934;5.884;2023-06-04T03:26:00;13.27;;;7.97;;
56136;SDS011;42008;52.934;5.884;2023-06-04T03:28:26;21.23;;;8.20;;
56136;SDS011;42008;52.934;5.884;2023-06-04T03:30:52;19.03;;;8.53;;
56136;SDS011;42008;52.934;5.884;2023-06-04T03:33:17;25.97;;;9.73;;
56136;SDS011;42008;52.934;5.884;2023-06-04T03:35:43;18.60;;;9.10;;
56136;SDS011;42008;52.934;5.884;2023-06-04T03:38:09;18.03;;;7.87;;
56136;SDS011;42008;52.934;5.884;2023-06-04T03:40:34;17.07;;;7.77;;
56136;SDS011;42008;52.934;5.884;2023-06-04T03:43:00;21.60;;;8.37;;
56136;SDS011;42008;52.934;5.884;2023-06-04T03:45:26;16.90;;;7.43;;
56136;SDS011;42008;52.934;5.884;2023-06-04T03:47:51;19.97;;;8.30;;
56136;SDS011;42008;52.934;5.884;2023-06-04T03:50:17;16.20;;;7.27;;
56136;SDS011;42008;52.934;5.884;2023-06-04T03:52:43;18.63;;;7.73;;
56136;SDS011;42008;52.934;5.884;2023-06-04T03:55:09;14.43;;;7.33;;
56136;SDS011;42008;52.934;5.884;2023-06-04T03:57:36;16.70;;;7.13;;
56136;SDS011;42008;52.934;5.884;2023-06-04T04:00:04;17.47;;;7.43;;
56136;SDS011;42008;52.934;5.884;2023-06-04T04:02:37;15.93;;;8.67;;
56136;SDS011;42008;52.934;5.884;2023-06-04T04:05:03;25.00;;;9.23;;
56136;SDS011;42008;52.934;5.884;2023-06-04T04:07:29;21.77;;;8.30;;
56136;SDS011;42008;52.934;5.884;2023-06-04T04:09:54;22.27;;;9.00;;
56136;SDS011;42008;52.934;5.884;2023-06-04T04:12:20;17.23;;;8.43;;
56136;SDS011;42008;52.934;5.884;2023-06-04T04:14:46;14.93;;;8.57;;
56136;SDS011;42008;52.934;5.884;2023-06-04T04:17:12;22.97;;;8.47;;
56136;SDS011;42008;52.934;5.884;2023-06-04T04:19:38;19.57;;;8.10;;
56136;SDS011;42008;52.934;5.884;2023-06-04T04:22:04;21.60;;;8.83;;
56136;SDS011;42008;52.934;5.884;2023-06-04T04:24:30;30.00;;;10.67;;
56136;SDS011;42008;52.934;5.884;2023-06-04T04:26:56;22.70;;;9.37;;
56136;SDS011;42008;52.934;5.884;2023-06-04T04:29:23;18.00;;;8.47;;
56136;SDS011;42008;52.934;5.884;2023-06-04T04:31:53;24.53;;;10.10;;
56136;SDS011;42008;52.934;5.884;2023-06-04T04:34:21;21.03;;;9.43;;
56136;SDS011;42008;52.934;5.884;2023-06-04T04:36:49;19.47;;;10.13;;
56136;SDS011;42008;52.934;5.884;2023-06-04T04:39:18;25.43;;;11.87;;
56136;SDS011;42008;52.934;5.884;2023-06-04T04:41:44;31.40;;;12.83;;
56136;SDS011;42008;52.934;5.884;2023-06-04T04:44:10;29.37;;;11.30;;
56136;SDS011;42008;52.934;5.884;2023-06-04T04:46:35;30.27;;;12.30;;
56136;SDS011;42008;52.934;5.884;2023-06-04T04:49:01;29.43;;;11.93;;
56136;SDS011;42008;52.934;5.884;2023-06-04T04:51:26;32.23;;;13.60;;
56136;SDS011;42008;52.934;5.884;2023-06-04T04:53:52;23.90;;;11.30;;
56136;SDS011;42008;52.934;5.884;2023-06-04T04:56:19;22.53;;;11.30;;
56136;SDS011;42008;52.934;5.884;2023-06-04T04:58:45;34.13;;;12.23;;
56136;SDS011;42008;52.934;5.884;2023-06-04T05:01:11;23.73;;;11.00;;
56136;SDS011;42008;52.934;5.884;2023-06-04T05:03:36;29.73;;;11.63;;
56136;SDS011;42008;52.934;5.884;2023-06-04T05:06:02;24.07;;;10.23;;
56136;SDS011;42008;52.934;5.884;2023-06-04T05:08:28;26.00;;;10.70;;
56136;SDS011;42008;52.934;5.884;2023-06-04T05:10:53;19.20;;;11.57;;
56136;SDS011;42008;52.934;5.884;2023-06-04T05:13:19;21.63;;;10.43;;
56136;SDS011;42008;52.934;5.884;2023-06-04T05:15:45;24.27;;;10.03;;
56136;SDS011;42008;52.934;5.884;2023-06-04T05:18:12;19.80;;;10.13;;
56136;SDS011;42008;52.934;5.884;2023-06-04T05:20:41;27.47;;;9.73;;
56136;SDS011;42008;52.934;5.884;2023-06-04T05:23:08;25.73;;;9.50;;
56136;SDS011;42008;52.934;5.884;2023-06-04T05:25:33;19.40;;;9.50;;
56136;SDS011;42008;52.934;5.884;2023-06-04T05:27:59;22.43;;;9.90;;
56136;SDS011;42008;52.934;5.884;2023-06-04T05:30:24;21.77;;;9.10;;
56136;SDS011;42008;52.934;5.884;2023-06-04T05:32:50;16.10;;;8.67;;
56136;SDS011;42008;52.934;5.884;2023-06-04T05:35:19;17.80;;;8.07;;
56136;SDS011;42008;52.934;5.884;2023-06-04T05:37:45;19.10;;;9.17;;
56136;SDS011;42008;52.934;5.884;2023-06-04T05:40:14;18.93;;;9.27;;
56136;SDS011;42008;52.934;5.884;2023-06-04T05:42:40;15.67;;;8.80;;
56136;SDS011;42008;52.934;5.884;2023-06-04T05:45:06;18.93;;;8.77;;
56136;SDS011;42008;52.934;5.884;2023-06-04T05:47:33;23.53;;;8.87;;
56136;SDS011;42008;52.934;5.884;2023-06-04T05:49:59;19.13;;;8.50;;
56136;SDS011;42008;52.934;5.884;2023-06-04T05:52:24;19.57;;;8.83;;
56136;SDS011;42008;52.934;5.884;2023-06-04T05:54:50;19.23;;;8.53;;
56136;SDS011;42008;52.934;5.884;2023-06-04T05:57:16;16.43;;;9.03;;
56136;SDS011;42008;52.934;5.884;2023-06-04T05:59:41;13.43;;;8.43;;
56136;SDS011;42008;52.934;5.884;2023-06-04T06:02:07;19.13;;;8.67;;
56136;SDS011;42008;52.934;5.884;2023-06-04T06:04:33;18.67;;;8.87;;
56136;SDS011;42008;52.934;5.884;2023-06-04T06:06:58;14.37;;;8.80;;
56136;SDS011;42008;52.934;5.884;2023-06-04T06:09:24;15.73;;;8.40;;
56136;SDS011;42008;52.934;5.884;2023-06-04T06:11:49;17.87;;;8.47;;
56136;SDS011;42008;52.934;5.884;2023-06-04T06:14:15;15.50;;;8.70;;
56136;SDS011;42008;52.934;5.884;2023-06-04T06:16:40;20.77;;;9.57;;
56136;SDS011;42008;52.934;5.884;2023-06-04T06:19:06;17.33;;;9.00;;
56136;SDS011;42008;52.934;5.884;2023-06-04T06:21:31;20.33;;;9.83;;
56136;SDS011;42008;52.934;5.884;2023-06-04T06:23:57;18.27;;;9.33;;
56136;SDS011;42008;52.934;5.884;2023-06-04T06:26:22;12.67;;;8.13;;
56136;SDS011;42008;52.934;5.884;2023-06-04T06:28:50;17.17;;;8.87;;
56136;SDS011;42008;52.934;5.884;2023-06-04T06:31:15;18.13;;;9.80;;
56136;SDS011;42008;52.934;5.884;2023-06-04T06:33:41;21.10;;;8.90;;
56136;SDS011;42008;52.934;5.884;2023-06-04T06:36:07;13.53;;;7.30;;
56136;SDS011;42008;52.934;5.884;2023-06-04T06:38:34;15.30;;;7.17;;
56136;SDS011;42008;52.934;5.884;2023-06-04T06:41:00;12.27;;;6.00;;
56136;SDS011;42008;52.934;5.884;2023-06-04T06:43:25;15.90;;;5.83;;
56136;SDS011;42008;52.934;5.884;2023-06-04T06:45:51;12.70;;;5.87;;
56136;SDS011;42008;52.934;5.884;2023-06-04T06:48:17;12.30;;;5.47;;
56136;SDS011;42008;52.934;5.884;2023-06-04T06:50:42;12.97;;;4.70;;
56136;SDS011;42008;52.934;5.884;2023-06-04T06:53:08;13.50;;;5.07;;
56136;SDS011;42008;52.934;5.884;2023-06-04T06:55:33;17.30;;;6.00;;
56136;SDS011;42008;52.934;5.884;2023-06-04T06:57:59;13.23;;;4.53;;
56136;SDS011;42008;52.934;5.884;2023-06-04T07:00:25;15.97;;;4.93;;
56136;SDS011;42008;52.934;5.884;2023-06-04T07:02:52;11.47;;;4.70;;
56136;SDS011;42008;52.934;5.884;2023-06-04T07:05:18;10.80;;;4.23;;
56136;SDS011;42008;52.934;5.884;2023-06-04T07:07:44;12.40;;;4.03;;
56136;SDS011;42008;52.934;5.884;2023-06-04T07:10:11;12.67;;;4.23;;
56136;SDS011;42008;52.934;5.884;2023-06-04T07:12:37;10.60;;;3.90;;
56136;SDS011;42008;52.934;5.884;2023-06-04T07:15:04;9.17;;;4.43;;
56136;SDS011;42008;52.934;5.884;2023-06-04T07:17:30;13.57;;;4.80;;
56136;SDS011;42008;52.934;5.884;2023-06-04T07:19:55;13.60;;;4.40;;
56136;SDS011;42008;52.934;5.884;2023-06-04T07:22:24;11.03;;;3.80;;
56136;SDS011;42008;52.934;5.884;2023-06-04T07:24:49;13.00;;;3.50;;
56136;SDS011;42008;52.934;5.884;2023-06-04T07:27:15;10.30;;;3.60;;
56136;SDS011;42008;52.934;5.884;2023-06-04T07:29:43;9.20;;;3.20;;
56136;SDS011;42008;52.934;5.884;2023-06-04T07:32:09;14.53;;;3.10;;
56136;SDS011;42008;52.934;5.884;2023-06-04T07:34:35;10.27;;;2.97;;
56136;SDS011;42008;52.934;5.884;2023-06-04T07:37:02;10.70;;;3.40;;
56136;SDS011;42008;52.934;5.884;2023-06-04T07:39:28;9.50;;;3.00;;
56136;SDS011;42008;52.934;5.884;2023-06-04T07:41:56;7.97;;;2.93;;
56136;SDS011;42008;52.934;5.884;2023-06-04T07:44:22;9.47;;;3.00;;
56136;SDS011;42008;52.934;5.884;2023-06-04T07:46:47;9.47;;;3.70;;
56136;SDS011;42008;52.934;5.884;2023-06-04T07:49:13;7.40;;;2.80;;
56136;SDS011;42008;52.934;5.884;2023-06-04T07:51:39;9.83;;;3.27;;
56136;SDS011;42008;52.934;5.884;2023-06-04T07:54:04;9.17;;;2.63;;
56136;SDS011;42008;52.934;5.884;2023-06-04T07:56:30;7.27;;;2.77;;
56136;SDS011;42008;52.934;5.884;2023-06-04T07:58:56;5.67;;;2.53;;
56136;SDS011;42008;52.934;5.884;2023-06-04T08:01:21;8.13;;;3.00;;
56136;SDS011;42008;52.934;5.884;2023-06-04T08:03:49;10.27;;;3.20;;
56136;SDS011;42008;52.934;5.884;2023-06-04T08:06:15;10.90;;;3.13;;
56136;SDS011;42008;52.934;5.884;2023-06-04T08:08:44;7.73;;;2.77;;
56136;SDS011;42008;52.934;5.884;2023-06-04T08:11:17;10.17;;;3.10;;
56136;SDS011;42008;52.934;5.884;2023-06-04T08:13:42;12.55;;;2.88;;
56136;SDS011;42008;52.934;5.884;2023-06-04T08:16:08;10.60;;;3.30;;
56136;SDS011;42008;52.934;5.884;2023-06-04T08:18:41;10.23;;;3.10;;
56136;SDS011;42008;52.934;5.884;2023-06-04T08:21:08;9.77;;;2.90;;
56136;SDS011;42008;52.934;5.884;2023-06-04T08:25:06;7.60;;;2.60;;
56136;SDS011;42008;52.934;5.884;2023-06-04T08:27:34;6.80;;;2.37;;
56136;SDS011;42008;52.934;5.884;2023-06-04T08:30:01;7.97;;;2.50;;
56136;SDS011;42008;52.934;5.884;2023-06-04T08:32:27;7.97;;;2.87;;
56136;SDS011;42008;52.934;5.884;2023-06-04T08:34:54;10.93;;;3.10;;
56136;SDS011;42008;52.934;5.884;2023-06-04T08:37:19;12.63;;;3.67;;
56136;SDS011;42008;52.934;5.884;2023-06-04T08:39:45;9.30;;;3.13;;
56136;SDS011;42008;52.934;5.884;2023-06-04T08:42:31;11.57;;;2.60;;
56136;SDS011;42008;52.934;5.884;2023-06-04T08:45:02;9.37;;;3.00;;
56136;SDS011;42008;52.934;5.884;2023-06-04T08:47:28;8.43;;;2.93;;
56136;SDS011;42008;52.934;5.884;2023-06-04T08:49:55;10.00;;;2.67;;
56136;SDS011;42008;52.934;5.884;2023-06-04T08:52:27;8.27;;;2.37;;
56136;SDS011;42008;52.934;5.884;2023-06-04T08:54:53;8.17;;;2.70;;
56136;SDS011;42008;52.934;5.884;2023-06-04T08:57:19;7.30;;;2.37;;
56136;SDS011;42008;52.934;5.884;2023-06-04T08:59:45;9.93;;;2.67;;
56136;SDS011;42008;52.934;5.884;2023-06-04T09:02:12;7.30;;;2.20;;
56136;SDS011;42008;52.934;5.884;2023-06-04T09:04:43;9.77;;;2.63;;
56136;SDS011;42008;52.934;5.884;2023-06-04T09:07:10;9.87;;;2.70;;
56136;SDS011;42008;52.934;5.884;2023-06-04T09:09:38;10.63;;;2.50;;
56136;SDS011;42008;52.934;5.884;2023-06-04T09:12:05;8.27;;;2.57;;
56136;SDS011;42008;52.934;5.884;2023-06-04T09:14:36;9.45;;;2.38;;
56136;SDS011;42008;52.934;5.884;2023-06-04T09:17:02;8.93;;;2.60;;
56136;SDS011;42008;52.934;5.884;2023-06-04T09:19:27;7.63;;;2.37;;
56136;SDS011;42008;52.934;5.884;2023-06-04T09:21:54;6.30;;;2.50;;
56136;SDS011;42008;52.934;5.884;2023-06-04T09:24:22;7.33;;;2.47;;
56136;SDS011;42008;52.934;5.884;2023-06-04T09:26:49;7.93;;;2.70;;
56136;SDS011;42008;52.934;5.884;2023-06-04T09:29:15;6.00;;;2.70;;
56136;SDS011;42008;52.934;5.884;2023-06-04T09:31:57;6.83;;;2.47;;
56136;SDS011;42008;52.934;5.884;2023-06-04T09:34:26;7.65;;;2.40;;
56136;SDS011;42008;52.934;5.884;2023-06-04T09:36:53;7.63;;;2.60;;
56136;SDS011;42008;52.934;5.884;2023-06-04T09:39:19;6.33;;;2.50;;
56136;SDS011;42008;52.934;5.884;2023-06-04T09:41:56;7.30;;;2.30;;
56136;SDS011;42008;52.934;5.884;2023-06-04T09:44:23;7.57;;;2.93;;
56136;SDS011;42008;52.934;5.884;2023-06-04T09:46:55;10.80;;;2.70;;
56136;SDS011;42008;52.934;5.884;2023-06-04T09:49:21;7.43;;;2.17;;
56136;SDS011;42008;52.934;5.884;2023-06-04T09:51:48;7.80;;;2.60;;
56136;SDS011;42008;52.934;5.884;2023-06-04T09:54:13;7.07;;;2.30;;
56136;SDS011;42008;52.934;5.884;2023-06-04T09:56:40;4.77;;;1.80;;
56136;SDS011;42008;52.934;5.884;2023-06-04T09:59:06;6.93;;;2.23;;
56136;SDS011;42008;52.934;5.884;2023-06-04T10:01:34;6.20;;;2.20;;
56136;SDS011;42008;52.934;5.884;2023-06-04T10:04:05;6.10;;;2.30;;
56136;SDS011;42008;52.934;5.884;2023-06-04T10:06:34;5.70;;;2.10;;
56136;SDS011;42008;52.934;5.884;2023-06-04T10:09:07;6.80;;;2.20;;
56136;SDS011;42008;52.934;5.884;2023-06-04T10:11:39;4.93;;;1.93;;
56136;SDS011;42008;52.934;5.884;2023-06-04T10:17:06;7.43;;;2.10;;
56136;SDS011;42008;52.934;5.884;2023-06-04T10:19:34;6.85;;;2.08;;
56136;SDS011;42008;52.934;5.884;2023-06-04T10:22:02;5.88;;;1.80;;
56136;SDS011;42008;52.934;5.884;2023-06-04T10:24:28;7.45;;;1.90;;
56136;SDS011;42008;52.934;5.884;2023-06-04T10:26:54;5.55;;;2.15;;
56136;SDS011;42008;52.934;5.884;2023-06-04T10:29:22;5.93;;;2.00;;
56136;SDS011;42008;52.934;5.884;2023-06-04T10:31:53;6.53;;;2.08;;
56136;SDS011;42008;52.934;5.884;2023-06-04T10:34:21;5.72;;;1.98;;
56136;SDS011;42008;52.934;5.884;2023-06-04T10:36:47;5.72;;;2.15;;
56136;SDS011;42008;52.934;5.884;2023-06-04T10:39:13;5.60;;;2.17;;
56136;SDS011;42008;52.934;5.884;2023-06-04T10:42:04;6.90;;;2.40;;
56136;SDS011;42008;52.934;5.884;2023-06-04T10:44:31;5.85;;;1.73;;
56136;SDS011;42008;52.934;5.884;2023-06-04T10:46:57;4.43;;;2.03;;
56136;SDS011;42008;52.934;5.884;2023-06-04T10:49:27;5.05;;;2.03;;
56136;SDS011;42008;52.934;5.884;2023-06-04T10:51:53;6.88;;;2.17;;
56136;SDS011;42008;52.934;5.884;2023-06-04T10:54:28;6.68;;;2.20;;
56136;SDS011;42008;52.934;5.884;2023-06-04T10:56:54;6.07;;;1.88;;
56136;SDS011;42008;52.934;5.884;2023-06-04T10:59:20;6.05;;;2.05;;
56136;SDS011;42008;52.934;5.884;2023-06-04T11:01:46;7.43;;;2.45;;
56136;SDS011;42008;52.934;5.884;2023-06-04T11:04:22;5.55;;;2.10;;
56136;SDS011;42008;52.934;5.884;2023-06-04T11:06:59;4.63;;;1.80;;
56136;SDS011;42008;52.934;5.884;2023-06-04T11:09:33;7.03;;;1.95;;
56136;SDS011;42008;52.934;5.884;2023-06-04T11:12:00;5.00;;;2.15;;
56136;SDS011;42008;52.934;5.884;2023-06-04T11:14:25;5.47;;;2.15;;
56136;SDS011;42008;52.934;5.884;2023-06-04T11:16:51;6.03;;;2.08;;
56136;SDS011;42008;52.934;5.884;2023-06-04T11:19:17;8.07;;;2.30;;
56136;SDS011;42008;52.934;5.884;2023-06-04T11:21:45;8.73;;;2.17;;
56136;SDS011;42008;52.934;5.884;2023-06-04T11:24:12;6.28;;;2.20;;
56136;SDS011;42008;52.934;5.884;2023-06-04T11:26:38;8.90;;;2.65;;
56136;SDS011;42008;52.934;5.884;2023-06-04T11:29:07;5.93;;;1.95;;
56136;SDS011;42008;52.934;5.884;2023-06-04T11:34:27;5.60;;;2.10;;
56136;SDS011;42008;52.934;5.884;2023-06-04T11:36:54;8.00;;;2.50;;
56136;SDS011;42008;52.934;5.884;2023-06-04T11:39:34;6.03;;;2.30;;
56136;SDS011;42008;52.934;5.884;2023-06-04T11:42:03;7.30;;;2.50;;
56136;SDS011;42008;52.934;5.884;2023-06-04T11:44:30;6.68;;;2.63;;
56136;SDS011;42008;52.934;5.884;2023-06-04T11:46:56;6.20;;;2.35;;
56136;SDS011;42008;52.934;5.884;2023-06-04T11:49:22;5.13;;;2.10;;
56136;SDS011;42008;52.934;5.884;2023-06-04T11:51:48;8.90;;;2.72;;
56136;SDS011;42008;52.934;5.884;2023-06-04T11:54:15;7.40;;;2.15;;
56136;SDS011;42008;52.934;5.884;2023-06-04T11:56:42;5.30;;;1.95;;
56136;SDS011;42008;52.934;5.884;2023-06-04T11:59:12;3.95;;;2.00;;
56136;SDS011;42008;52.934;5.884;2023-06-04T12:01:39;8.32;;;2.30;;
56136;SDS011;42008;52.934;5.884;2023-06-04T12:06:51;5.28;;;2.65;;
56136;SDS011;42008;52.934;5.884;2023-06-04T12:09:22;7.33;;;2.40;;
56136;SDS011;42008;52.934;5.884;2023-06-04T12:11:49;8.82;;;2.13;;
56136;SDS011;42008;52.934;5.884;2023-06-04T12:14:16;7.00;;;2.30;;
56136;SDS011;42008;52.934;5.884;2023-06-04T12:16:44;5.40;;;2.25;;
56136;SDS011;42008;52.934;5.884;2023-06-04T12:19:23;6.47;;;2.55;;
56136;SDS011;42008;52.934;5.884;2023-06-04T12:22:01;6.82;;;2.35;;
56136;SDS011;42008;52.934;5.884;2023-06-04T12:24:32;4.57;;;2.00;;
56136;SDS011;42008;52.934;5.884;2023-06-04T12:27:01;7.70;;;2.42;;
56136;SDS011;42008;52.934;5.884;2023-06-04T12:29:31;4.87;;;2.40;;
56136;SDS011;42008;52.934;5.884;2023-06-04T12:34:32;5.75;;;1.90;;
56136;SDS011;42008;52.934;5.884;2023-06-04T12:36:59;5.07;;;2.10;;
56136;SDS011;42008;52.934;5.884;2023-06-04T12:39:25;7.35;;;2.20;;
56136;SDS011;42008;52.934;5.884;2023-06-04T12:41:50;5.97;;;1.85;;
56136;SDS011;42008;52.934;5.884;2023-06-04T12:44:16;5.68;;;1.90;;
56136;SDS011;42008;52.934;5.884;2023-06-04T12:46:42;5.13;;;2.00;;
56136;SDS011;42008;52.934;5.884;2023-06-04T12:49:07;6.35;;;2.53;;
56136;SDS011;42008;52.934;5.884;2023-06-04T12:51:33;9.15;;;2.30;;
56136;SDS011;42008;52.934;5.884;2023-06-04T12:53:59;6.60;;;2.20;;
56136;SDS011;42008;52.934;5.884;2023-06-04T12:56:25;6.95;;;2.20;;
56136;SDS011;42008;52.934;5.884;2023-06-04T12:58:51;5.32;;;2.13;;
56136;SDS011;42008;52.934;5.884;2023-06-04T13:01:17;5.63;;;2.03;;
56136;SDS011;42008;52.934;5.884;2023-06-04T13:03:42;6.13;;;2.30;;
56136;SDS011;42008;52.934;5.884;2023-06-04T13:06:08;5.90;;;2.42;;
56136;SDS011;42008;52.934;5.884;2023-06-04T13:08:34;6.68;;;2.30;;
56136;SDS011;42008;52.934;5.884;2023-06-04T13:11:01;5.95;;;1.83;;
56136;SDS011;42008;52.934;5.884;2023-06-04T13:13:26;6.82;;;2.45;;
56136;SDS011;42008;52.934;5.884;2023-06-04T13:15:53;6.90;;;2.88;;
56136;SDS011;42008;52.934;5.884;2023-06-04T13:18:18;5.65;;;2.20;;
56136;SDS011;42008;52.934;5.884;2023-06-04T13:20:44;7.85;;;2.65;;
56136;SDS011;42008;52.934;5.884;2023-06-04T13:23:10;7.25;;;2.35;;
56136;SDS011;42008;52.934;5.884;2023-06-04T13:25:37;9.90;;;2.38;;
56136;SDS011;42008;52.934;5.884;2023-06-04T13:28:03;6.70;;;2.28;;
56136;SDS011;42008;52.934;5.884;2023-06-04T13:30:29;4.18;;;1.95;;
56136;SDS011;42008;52.934;5.884;2023-06-04T13:32:55;5.60;;;2.00;;
56136;SDS011;42008;52.934;5.884;2023-06-04T13:35:23;4.70;;;2.03;;
56136;SDS011;42008;52.934;5.884;2023-06-04T13:37:49;4.30;;;2.00;;
56136;SDS011;42008;52.934;5.884;2023-06-04T13:40:15;4.57;;;2.00;;
56136;SDS011;42008;52.934;5.884;2023-06-04T13:42:41;6.05;;;1.90;;
56136;SDS011;42008;52.934;5.884;2023-06-04T13:45:08;5.05;;;1.90;;
56136;SDS011;42008;52.934;5.884;2023-06-04T13:47:33;5.05;;;2.20;;
56136;SDS011;42008;52.934;5.884;2023-06-04T13:49:59;5.68;;;2.03;;
56136;SDS011;42008;52.934;5.884;2023-06-04T13:52:25;5.75;;;2.20;;
56136;SDS011;42008;52.934;5.884;2023-06-04T13:54:53;5.90;;;2.10;;
56136;SDS011;42008;52.934;5.884;2023-06-04T13:57:19;5.70;;;2.28;;
56136;SDS011;42008;52.934;5.884;2023-06-04T13:59:44;6.00;;;2.20;;
56136;SDS011;42008;52.934;5.884;2023-06-04T14:02:10;5.00;;;2.08;;
56136;SDS011;42008;52.934;5.884;2023-06-04T14:04:36;5.50;;;2.00;;
56136;SDS011;42008;52.934;5.884;2023-06-04T14:07:01;8.52;;;2.13;;
56136;SDS011;42008;52.934;5.884;2023-06-04T14:09:27;6.82;;;1.90;;
56136;SDS011;42008;52.934;5.884;2023-06-04T14:11:53;5.13;;;2.10;;
56136;SDS011;42008;52.934;5.884;2023-06-04T14:14:22;5.22;;;1.98;;
56136;SDS011;42008;52.934;5.884;2023-06-04T14:16:48;7.25;;;2.00;;
56136;SDS011;42008;52.934;5.884;2023-06-04T14:19:13;6.95;;;1.90;;
56136;SDS011;42008;52.934;5.884;2023-06-04T14:21:43;4.35;;;1.77;;
56136;SDS011;42008;52.934;5.884;2023-06-04T14:24:09;3.95;;;1.77;;
56136;SDS011;42008;52.934;5.884;2023-06-04T14:26:35;4.80;;;1.90;;
56136;SDS011;42008;52.934;5.884;2023-06-04T14:29:01;5.55;;;1.95;;
56136;SDS011;42008;52.934;5.884;2023-06-04T14:31:27;6.15;;;2.05;;
56136;SDS011;42008;52.934;5.884;2023-06-04T14:33:56;3.72;;;1.75;;
56136;SDS011;42008;52.934;5.884;2023-06-04T14:36:21;4.38;;;1.70;;
56136;SDS011;42008;52.934;5.884;2023-06-04T14:38:47;5.28;;;1.90;;
56136;SDS011;42008;52.934;5.884;2023-06-04T14:41:13;4.68;;;1.88;;
56136;SDS011;42008;52.934;5.884;2023-06-04T14:43:39;5.38;;;1.70;;
56136;SDS011;42008;52.934;5.884;2023-06-04T14:46:05;4.43;;;1.70;;
56136;SDS011;42008;52.934;5.884;2023-06-04T14:48:31;4.00;;;1.60;;
56136;SDS011;42008;52.934;5.884;2023-06-04T14:50:56;6.28;;;1.60;;
56136;SDS011;42008;52.934;5.884;2023-06-04T14:53:22;4.53;;;1.55;;
56136;SDS011;42008;52.934;5.884;2023-06-04T14:55:48;7.75;;;1.80;;
56136;SDS011;42008;52.934;5.884;2023-06-04T14:58:14;5.88;;;1.88;;
56136;SDS011;42008;52.934;5.884;2023-06-04T15:00:41;6.28;;;1.98;;
56136;SDS011;42008;52.934;5.884;2023-06-04T15:03:07;5.05;;;2.00;;